Terminal Aerodrome Forecast
Issued by NWS El Paso, TX

Home | Current Version | Previous Version | Text Only | Print | Product List | Glossary On
Versions: 1 2 3 4 5 6 7 8 9 10 11 12 13
235
FTUS44 KEPZ 291133
TAFELP
TAF
KELP 291133Z 2912/3012 30013G20KT P6SM FEW250
     FM291500 25011KT P6SM FEW250
     FM291700 26015G25KT P6SM FEW250
     FM300300 28012KT P6SM SKC=

USA.gov is the U.S. government's official web portal to all federal, state and local government web resources and services.